createdAt,value
2018-07-12T00:02:18.383Z,96106.55
2018-07-12T00:04:46.118Z,96103.30
2018-07-12T00:07:14.269Z,96102.16
2018-07-12T00:09:41.567Z,96105.27
2018-07-12T00:12:08.849Z,96098.30
2018-07-12T00:14:36.144Z,96101.17
2018-07-12T00:17:03.459Z,96099.50
2018-07-12T00:19:30.872Z,96101.87
2018-07-12T00:21:58.208Z,96105.95
2018-07-12T00:24:25.487Z,96101.02
2018-07-12T00:26:52.765Z,96100.34
2018-07-12T00:29:20.067Z,96102.92
2018-07-12T00:31:47.397Z,96099.20
2018-07-12T00:34:14.690Z,96101.10
2018-07-12T00:36:42.028Z,96102.48
2018-07-12T00:39:09.478Z,96108.50
2018-07-12T00:41:36.768Z,96106.97
2018-07-12T00:44:04.081Z,96104.57
2018-07-12T00:46:31.423Z,96102.96
2018-07-12T00:48:58.719Z,96109.31
2018-07-12T00:51:26.020Z,96105.73
2018-07-12T00:53:53.320Z,96105.52
2018-07-12T00:56:20.700Z,96106.66
2018-07-12T00:58:47.976Z,96102.50
2018-07-12T01:01:15.357Z,96105.70
2018-07-12T01:03:42.637Z,96108.16
2018-07-12T01:06:09.969Z,96104.02
2018-07-12T01:08:37.287Z,96098.54
2018-07-12T01:11:04.630Z,96101.72
2018-07-12T01:13:31.959Z,96102.62
2018-07-12T01:15:59.273Z,96099.08
2018-07-12T01:18:26.567Z,96101.66
2018-07-12T01:20:53.863Z,96100.51
2018-07-12T01:23:21.140Z,96105.38
2018-07-12T01:25:48.448Z,96099.36
2018-07-12T01:28:15.755Z,96103.77
2018-07-12T01:30:43.188Z,96100.91
2018-07-12T01:33:10.652Z,96104.38
2018-07-12T01:35:37.986Z,96105.73
2018-07-12T01:38:05.288Z,96103.98
2018-07-12T01:40:32.597Z,96103.52
2018-07-12T01:42:59.920Z,96101.01
2018-07-12T01:45:27.308Z,96100.43
2018-07-12T01:47:54.603Z,96099.34
2018-07-12T01:50:21.988Z,96098.27
2018-07-12T01:52:49.267Z,96096.62
2018-07-12T01:55:16.560Z,96100.23
2018-07-12T01:57:43.840Z,96098.13
2018-07-12T02:00:11.138Z,96098.67
2018-07-12T02:02:38.553Z,96103.45
2018-07-12T02:05:06.223Z,96107.31
2018-07-12T02:07:33.509Z,96105.78
2018-07-12T02:10:00.896Z,96110.25
2018-07-12T02:12:28.188Z,96110.31
2018-07-12T02:14:55.464Z,96109.59
2018-07-12T02:17:22.773Z,96111.75
2018-07-12T02:19:56.308Z,96114.11
2018-07-12T02:22:23.676Z,96109.44
2018-07-12T02:24:50.957Z,96109.98
2018-07-12T02:27:18.272Z,96104.56
2018-07-12T02:29:45.737Z,96104.78
2018-07-12T02:32:13.039Z,96106.66
2018-07-12T02:34:40.353Z,96110.25
2018-07-12T02:37:07.669Z,96114.39
2018-07-12T02:39:34.972Z,96113.02
2018-07-12T02:42:02.284Z,96114.77
2018-07-12T02:44:29.557Z,96108.27
2018-07-12T02:46:56.846Z,96109.22
2018-07-12T02:49:24.215Z,96114.70
2018-07-12T02:51:51.508Z,96118.03
2018-07-12T02:54:18.861Z,96115.88
2018-07-12T02:56:46.160Z,96111.93
2018-07-12T02:59:13.465Z,96109.50
2018-07-12T03:01:40.776Z,96107.66
2018-07-12T03:04:08.084Z,96111.94
2018-07-12T03:06:35.445Z,96108.27
2018-07-12T03:09:02.826Z,96110.19
2018-07-12T03:11:30.121Z,96110.84
2018-07-12T03:13:57.420Z,96115.02
2018-07-12T03:16:41.755Z,96115.30
2018-07-12T03:19:09.092Z,96112.50
2018-07-12T03:21:36.448Z,96118.74
2018-07-12T03:24:03.743Z,96114.02
2018-07-12T03:26:31.047Z,96118.66
2018-07-12T03:28:58.360Z,96117.45
2018-07-12T03:31:25.744Z,96113.05
2018-07-12T03:33:53.137Z,96108.91
2018-07-12T03:36:20.488Z,96110.80
2018-07-12T03:38:47.798Z,96104.84
2018-07-12T03:41:15.092Z,96107.22
2018-07-12T03:43:42.396Z,96106.84
2018-07-12T03:46:09.749Z,96105.42
2018-07-12T03:48:37.168Z,96102.25
2018-07-12T03:51:04.471Z,96109.23
2018-07-12T03:53:31.809Z,96104.46
2018-07-12T03:55:59.117Z,96104.59
2018-07-12T03:58:26.417Z,96110.84
2018-07-12T04:00:53.718Z,96107.25
2018-07-12T04:03:21.034Z,96099.59
2018-07-12T04:05:48.813Z,96105.03
2018-07-12T04:08:16.100Z,96098.66
2018-07-12T04:10:43.383Z,96102.92
2018-07-12T04:13:10.715Z,96106.04
2018-07-12T04:15:38.044Z,96104.02
2018-07-12T04:18:05.350Z,96082.89
2018-07-12T04:20:32.649Z,96112.28
2018-07-12T04:22:59.951Z,96105.16
2018-07-12T04:25:27.271Z,96104.84
2018-07-12T04:27:54.628Z,96108.23
2018-07-12T04:30:21.913Z,96109.10
2018-07-12T04:32:49.201Z,96106.99
2018-07-12T04:35:16.545Z,96107.81
2018-07-12T04:37:43.898Z,96113.15
2018-07-12T04:40:11.196Z,96107.89
2018-07-12T04:42:38.532Z,96109.29
2018-07-12T04:45:05.854Z,96114.71
2018-07-12T04:47:33.201Z,96115.26
2018-07-12T04:50:00.499Z,96109.16
2018-07-12T04:52:27.829Z,96111.46
2018-07-12T04:54:55.117Z,96111.67
2018-07-12T04:57:22.453Z,96109.97
2018-07-12T04:59:49.778Z,96112.41
2018-07-12T05:02:17.068Z,96111.33
2018-07-12T05:04:44.370Z,96109.48
2018-07-12T05:07:11.922Z,96108.27
2018-07-12T05:09:39.232Z,96106.16
2018-07-12T05:12:06.540Z,96111.07
2018-07-12T05:14:33.877Z,96111.00
2018-07-12T05:17:01.157Z,96107.81
2018-07-12T05:19:28.442Z,96102.83
2018-07-12T05:21:55.782Z,96104.89
2018-07-12T05:24:23.079Z,96109.06
2018-07-12T05:26:50.374Z,96104.97
2018-07-12T05:29:17.669Z,96106.03
2018-07-12T05:31:44.997Z,96100.17
2018-07-12T05:34:12.284Z,96105.27
2018-07-12T05:36:53.084Z,96096.70
2018-07-12T05:39:22.053Z,96101.15
2018-07-12T05:41:51.105Z,96105.38
2018-07-12T05:44:19.737Z,96097.16
2018-07-12T05:46:48.718Z,96099.59
2018-07-12T05:49:17.405Z,96104.31
2018-07-12T05:51:46.808Z,96102.48
2018-07-12T05:54:16.082Z,96113.59
2018-07-12T05:56:44.796Z,96114.80
2018-07-12T05:59:13.546Z,96106.91
2018-07-12T06:01:53.211Z,96111.11
2018-07-12T06:04:21.813Z,96113.83
2018-07-12T06:06:51.174Z,96114.27
2018-07-12T06:09:19.859Z,96107.48
2018-07-12T06:11:48.445Z,96101.20
2018-07-12T06:14:16.983Z,96107.11
2018-07-12T06:16:45.567Z,96104.89
2018-07-12T06:19:14.332Z,96100.93
2018-07-12T06:21:42.943Z,96099.63
2018-07-12T06:24:11.614Z,96100.34
2018-07-12T06:26:40.344Z,96100.81
2018-07-12T06:29:08.936Z,96101.00
2018-07-12T06:31:37.481Z,96094.84
2018-07-12T06:34:06.122Z,96100.83
2018-07-12T06:36:34.642Z,96101.48
2018-07-12T06:39:03.471Z,96100.50
2018-07-12T06:41:32.204Z,96100.49
2018-07-12T06:44:00.777Z,96103.08
2018-07-12T06:46:29.375Z,96105.86
2018-07-12T06:48:57.946Z,96113.80
2018-07-12T06:51:26.484Z,96114.28
2018-07-12T06:53:55.066Z,96113.15
2018-07-12T06:56:23.628Z,96117.67
2018-07-12T06:58:52.435Z,96119.94
2018-07-12T07:01:21.814Z,96112.16
2018-07-12T07:03:50.366Z,96119.30
2018-07-12T07:06:19.055Z,96117.02
2018-07-12T07:08:47.676Z,96114.76
2018-07-12T07:11:16.490Z,96118.30
2018-07-12T07:13:45.440Z,96118.95
2018-07-12T07:16:14.057Z,96120.25
2018-07-12T07:18:42.723Z,96119.78
2018-07-12T07:21:11.830Z,96119.94
2018-07-12T07:23:40.387Z,96129.66
2018-07-12T07:26:09.032Z,96130.62
2018-07-12T07:28:37.600Z,96128.83
2018-07-12T07:31:06.316Z,96127.00
2018-07-12T07:33:34.843Z,96130.45
2018-07-12T07:36:03.442Z,96126.08
2018-07-12T07:38:31.979Z,96129.17
2018-07-12T07:41:00.569Z,96133.53
2018-07-12T07:43:29.449Z,96125.29
2018-07-12T07:45:58.040Z,96125.40
2018-07-12T07:48:27.016Z,96116.66
2018-07-12T07:50:55.648Z,96117.76
2018-07-12T07:53:24.341Z,96123.22
2018-07-12T07:55:52.915Z,96121.66
2018-07-12T07:58:21.465Z,96126.33
2018-07-12T08:00:50.060Z,96122.35
2018-07-12T08:03:29.237Z,96116.88
2018-07-12T08:05:57.942Z,96124.20
2018-07-12T08:08:27.735Z,96119.59
2018-07-12T08:10:56.457Z,96123.95
2018-07-12T08:13:25.202Z,96131.39
2018-07-12T08:15:53.745Z,96127.38
2018-07-12T08:18:22.294Z,96127.02
2018-07-12T08:20:50.864Z,96130.58
2018-07-12T08:23:19.556Z,96121.47
2018-07-12T08:25:48.208Z,96128.37
2018-07-12T08:28:27.580Z,96127.98
2018-07-12T08:30:56.497Z,96125.37
2018-07-12T08:33:25.575Z,96122.31
2018-07-12T08:35:54.033Z,96122.47
2018-07-12T08:38:22.695Z,96116.90
2018-07-12T08:40:51.221Z,96114.11
2018-07-12T08:43:19.800Z,96111.88
2018-07-12T08:45:48.375Z,96111.91
2018-07-12T08:48:16.973Z,96107.30
2018-07-12T08:50:45.539Z,96104.67
2018-07-12T08:53:14.446Z,96102.98
2018-07-12T08:55:43.000Z,96115.14
2018-07-12T08:58:13.463Z,96102.73
2018-07-12T09:00:42.448Z,96109.18
2018-07-12T09:03:11.118Z,96100.37
2018-07-12T09:05:39.727Z,96101.92
2018-07-12T09:08:08.310Z,96103.03
2018-07-12T09:10:37.040Z,96103.61
2018-07-12T09:13:05.781Z,96093.87
2018-07-12T09:15:34.364Z,96098.68
2018-07-12T09:18:02.938Z,96100.30
2018-07-12T09:20:34.407Z,96098.09
2018-07-12T09:23:02.989Z,96097.05
2018-07-12T09:25:31.584Z,96101.64
2018-07-12T09:28:00.128Z,96105.83
2018-07-12T09:30:28.831Z,96104.27
2018-07-12T09:32:57.701Z,96100.16
2018-07-12T09:35:26.492Z,96109.25
2018-07-12T09:37:55.105Z,96107.77
2018-07-12T09:40:23.700Z,96100.04
2018-07-12T09:42:52.527Z,96107.98
2018-07-12T09:45:21.595Z,96112.34
2018-07-12T09:47:50.147Z,96106.27
2018-07-12T09:50:18.733Z,96113.71
2018-07-12T09:52:47.292Z,96112.19
2018-07-12T09:55:16.140Z,96112.64
2018-07-12T09:57:55.831Z,96102.96
2018-07-12T10:00:29.536Z,96104.31
2018-07-12T10:03:03.451Z,96114.40
2018-07-12T10:05:40.185Z,96114.31
2018-07-12T10:08:13.999Z,96109.72
2018-07-12T10:10:49.337Z,96104.39
2018-07-12T10:13:30.049Z,96096.78
2018-07-12T10:16:08.653Z,96104.17
2018-07-12T10:18:37.424Z,96099.71
2018-07-12T10:21:06.076Z,96097.43
2018-07-12T10:23:34.671Z,96098.41
2018-07-12T10:26:03.258Z,96093.49
2018-07-12T10:28:31.804Z,96095.47
2018-07-12T10:31:00.497Z,96095.16
2018-07-12T10:33:29.110Z,96093.95
2018-07-12T10:35:57.725Z,96100.72
2018-07-12T10:38:26.329Z,96090.65
2018-07-12T10:40:54.894Z,96090.33
2018-07-12T10:43:23.614Z,96095.98
2018-07-12T10:45:52.362Z,96104.31
2018-07-12T10:48:20.980Z,96105.31
2018-07-12T10:50:49.700Z,96099.40
2018-07-12T10:53:18.251Z,96096.30
2018-07-12T10:55:46.879Z,96094.15
2018-07-12T10:58:15.558Z,96098.22
2018-07-12T11:00:44.204Z,96103.41
2018-07-12T11:03:13.818Z,96098.97
2018-07-12T11:05:42.407Z,96104.92
2018-07-12T11:08:11.034Z,96100.48
2018-07-12T11:10:39.629Z,96092.67
2018-07-12T11:13:18.413Z,96101.42
2018-07-12T11:24:18.568Z,96111.39
2018-07-12T11:26:47.200Z,96101.55
2018-07-12T11:29:15.800Z,96106.55
2018-07-12T11:31:44.347Z,96099.41
2018-07-12T11:34:13.015Z,96112.52
2018-07-12T11:36:41.611Z,96109.50
2018-07-12T11:39:10.430Z,96110.58
2018-07-12T11:41:39.050Z,96104.54
2018-07-12T11:44:07.571Z,96110.41
2018-07-12T11:46:36.184Z,96108.06
2018-07-12T11:49:04.765Z,96116.52
2018-07-12T11:51:33.365Z,96100.00
2018-07-12T11:54:01.960Z,96102.24
2018-07-12T11:56:30.543Z,96094.97
2018-07-12T11:58:59.169Z,96101.88
2018-07-12T12:01:27.829Z,96099.22
2018-07-12T12:03:56.325Z,96099.51
2018-07-12T12:06:24.911Z,96088.83
2018-07-12T12:08:53.469Z,96096.78
2018-07-12T12:11:22.752Z,96098.42
2018-07-12T12:13:51.700Z,96083.20
2018-07-12T12:16:20.424Z,96082.46
2018-07-12T12:18:48.985Z,96088.23
2018-07-12T12:21:21.875Z,96088.63
2018-07-12T12:23:54.071Z,96074.30
2018-07-12T12:26:23.909Z,96092.22
2018-07-12T12:28:52.647Z,96079.44
2018-07-12T12:31:31.565Z,96079.47
2018-07-12T12:34:00.225Z,96095.95
2018-07-12T12:36:28.972Z,96084.40
2018-07-12T12:38:57.660Z,96085.83
2018-07-12T12:41:26.235Z,96078.98
2018-07-12T12:43:54.983Z,96082.09
2018-07-12T12:46:24.031Z,96078.28
2018-07-12T12:48:52.606Z,96070.31
2018-07-12T12:51:21.318Z,96071.94
2018-07-12T12:53:49.968Z,96078.16
2018-07-12T12:56:18.712Z,96080.05
2018-07-12T12:58:47.383Z,96073.23
2018-07-12T13:01:15.986Z,96078.38
2018-07-12T13:03:44.608Z,96074.36
2018-07-12T13:06:13.267Z,96079.20
2018-07-12T13:08:41.976Z,96076.70
2018-07-12T13:11:10.635Z,96064.33
2018-07-12T13:13:39.314Z,96080.84
2018-07-12T13:16:07.927Z,96066.03
2018-07-12T13:18:36.537Z,96077.83
2018-07-12T13:21:05.513Z,96073.62
2018-07-12T13:23:34.093Z,96077.52
2018-07-12T13:26:02.693Z,96081.58
2018-07-12T13:28:31.281Z,96071.28
2018-07-12T13:30:59.860Z,96086.09
2018-07-12T13:33:28.676Z,96092.13
2018-07-12T13:35:57.229Z,96093.05
2018-07-12T13:38:25.814Z,96101.11
2018-07-12T13:40:54.415Z,96089.83
2018-07-12T13:43:22.936Z,96084.25
2018-07-12T13:45:51.544Z,96083.85
2018-07-12T13:48:20.110Z,96083.58
2018-07-12T13:50:48.677Z,96083.73
2018-07-12T13:53:17.230Z,96077.68
2018-07-12T13:55:45.926Z,96069.55
2018-07-12T13:58:14.518Z,96077.63
2018-07-12T14:00:43.081Z,96076.09
2018-07-12T14:03:11.979Z,96073.05
2018-07-12T14:05:40.624Z,96062.91
2018-07-12T14:08:09.173Z,96060.97
2018-07-12T14:10:37.769Z,96067.63
2018-07-12T14:13:06.763Z,96060.92
2018-07-12T14:15:35.350Z,96060.58
2018-07-12T14:18:03.888Z,96057.84
2018-07-12T14:20:32.537Z,96071.62
2018-07-12T14:23:01.132Z,96062.23
2018-07-12T14:25:29.659Z,96053.08
2018-07-12T14:27:58.207Z,96059.92
2018-07-12T14:30:26.861Z,96056.61
2018-07-12T14:32:56.200Z,96069.05
2018-07-12T14:35:36.857Z,96064.44
2018-07-12T14:38:06.195Z,96062.72
2018-07-12T14:40:35.590Z,96053.52
2018-07-12T14:43:05.097Z,96057.42
2018-07-12T14:45:33.786Z,96052.53
2018-07-12T14:48:03.214Z,96058.63
2018-07-12T14:50:31.885Z,96059.27
2018-07-12T14:53:01.130Z,96061.25
2018-07-12T14:55:29.924Z,96055.13
2018-07-12T14:57:58.462Z,96056.53
2018-07-12T15:00:27.052Z,96057.02
2018-07-12T15:02:55.661Z,96046.00
2018-07-12T15:05:24.449Z,96057.74
2018-07-12T15:07:53.057Z,96054.86
2018-07-12T15:10:21.743Z,96052.37
2018-07-12T15:12:50.318Z,96047.91
2018-07-12T15:15:19.519Z,96055.33
2018-07-12T15:17:48.100Z,96050.26
2018-07-12T15:20:16.705Z,96045.56
2018-07-12T15:22:45.297Z,96046.84
2018-07-12T15:25:14.669Z,96048.09
2018-07-12T15:27:43.262Z,96045.84
2018-07-12T15:30:11.857Z,96037.37
2018-07-12T15:32:40.423Z,96037.58
2018-07-12T15:35:09.127Z,96048.84
2018-07-12T15:37:37.836Z,96035.44
2018-07-12T15:40:06.421Z,96036.36
2018-07-12T15:42:35.252Z,96035.18
2018-07-12T15:45:03.914Z,96044.47
2018-07-12T15:47:32.493Z,96040.41
2018-07-12T15:50:01.232Z,96038.69
2018-07-12T15:52:29.787Z,96038.75
2018-07-12T15:54:58.386Z,96043.67
2018-07-12T15:57:27.271Z,96045.47
2018-07-12T15:59:55.872Z,96052.49
2018-07-12T16:02:24.419Z,96042.12
2018-07-12T16:04:53.012Z,96050.73
2018-07-12T16:07:21.808Z,96055.47
2018-07-12T16:09:50.414Z,96055.75
2018-07-12T16:12:19.104Z,96054.67
2018-07-12T16:14:47.711Z,96053.82
2018-07-12T16:17:17.457Z,96048.72
2018-07-12T16:19:46.922Z,96059.05
2018-07-12T16:22:16.380Z,96054.91
2018-07-12T16:24:45.790Z,96048.80
2018-07-12T16:27:14.396Z,96057.53
2018-07-12T16:29:43.140Z,96057.81
2018-07-12T16:32:11.712Z,96049.77
2018-07-12T16:34:40.282Z,96058.66
2018-07-12T16:37:11.766Z,96063.77
2018-07-12T16:39:40.375Z,96059.06
2018-07-12T16:42:08.978Z,96064.33
2018-07-12T16:44:37.672Z,96063.57
2018-07-12T16:47:07.052Z,96064.34
2018-07-12T16:49:35.680Z,96059.82
2018-07-12T16:52:04.229Z,96067.72
2018-07-12T16:54:33.243Z,96064.19
2018-07-12T16:57:01.867Z,96068.30
2018-07-12T16:59:30.410Z,96066.22
2018-07-12T17:01:59.009Z,96064.06
2018-07-12T17:04:27.564Z,96071.14
2018-07-12T17:06:56.264Z,96063.68
2018-07-12T17:09:24.999Z,96066.30
2018-07-12T17:11:53.596Z,96075.13
2018-07-12T17:14:22.273Z,96069.97
2018-07-12T17:16:50.866Z,96077.41
2018-07-12T17:19:19.466Z,96069.17
2018-07-12T17:21:48.123Z,96076.47
2018-07-12T17:24:16.821Z,96069.88
2018-07-12T17:26:45.441Z,96072.94
2018-07-12T17:29:14.079Z,96069.58
2018-07-12T17:31:42.625Z,96075.25
2018-07-12T17:34:11.238Z,96071.62
2018-07-12T17:36:39.897Z,96077.66
2018-07-12T17:39:09.282Z,96081.88
2018-07-12T17:44:28.057Z,96085.63
2018-07-12T17:46:56.645Z,96087.94
2018-07-12T17:49:25.335Z,96086.50
2018-07-12T17:57:34.575Z,96096.52
2018-07-12T18:00:03.273Z,96096.58
2018-07-12T18:02:31.845Z,96100.27
2018-07-12T18:05:01.912Z,96097.60
2018-07-12T18:07:31.751Z,96098.57
2018-07-12T18:10:01.212Z,96092.47
2018-07-12T18:12:30.767Z,96089.09
2018-07-12T18:14:59.350Z,96097.99
2018-07-12T18:17:27.931Z,96097.99
2018-07-12T18:19:56.479Z,96093.42
2018-07-12T18:22:25.118Z,96100.06
2018-07-12T18:24:53.836Z,96106.64
2018-07-12T18:27:22.651Z,96113.36
2018-07-12T18:29:51.224Z,96114.09
2018-07-12T18:32:20.037Z,96119.83
2018-07-12T18:34:48.824Z,96122.92
2018-07-12T18:37:17.568Z,96120.13
2018-07-12T18:39:46.256Z,96127.27
2018-07-12T18:42:14.987Z,96127.52
2018-07-12T18:44:43.871Z,96134.12
2018-07-12T18:47:12.640Z,96133.91
2018-07-12T18:49:41.361Z,96139.25
2018-07-12T18:52:28.832Z,96144.22
2018-07-12T18:54:57.430Z,96151.03
2018-07-12T18:57:26.154Z,96146.68
2018-07-12T18:59:54.734Z,96154.36
2018-07-12T19:02:23.325Z,96157.50
2018-07-12T19:04:51.896Z,96161.52
2018-07-12T19:07:20.938Z,96159.80
2018-07-12T19:09:49.554Z,96169.16
2018-07-12T19:12:18.336Z,96170.45
2018-07-12T19:14:47.030Z,96177.95
2018-07-12T19:17:15.640Z,96180.51
2018-07-12T19:19:44.353Z,96184.88
2018-07-12T19:22:13.132Z,96188.66
2018-07-12T19:24:41.992Z,96185.47
2018-07-12T19:27:11.057Z,96189.80
2018-07-12T19:29:39.603Z,96188.39
2018-07-12T19:32:08.351Z,96196.27
2018-07-12T19:34:37.221Z,96196.55
2018-07-12T19:37:05.777Z,96191.80
2018-07-12T19:39:34.357Z,96204.10
2018-07-12T19:42:02.911Z,96208.19
2018-07-12T19:44:31.498Z,96209.73
2018-07-12T19:47:00.579Z,96212.83
2018-07-12T19:49:29.132Z,96217.36
2018-07-12T19:51:57.691Z,96216.30
2018-07-12T19:54:28.672Z,96222.45
2018-07-12T19:56:58.349Z,96221.80
2018-07-12T19:59:27.006Z,96225.10
2018-07-12T20:01:55.562Z,96227.36
2018-07-12T20:04:24.476Z,96227.21
2018-07-12T20:06:53.913Z,96231.55
2018-07-12T20:09:22.627Z,96229.24
2018-07-12T20:11:51.183Z,96233.78
2018-07-12T20:14:20.055Z,96230.53
2018-07-12T20:16:48.625Z,96233.01
2018-07-12T20:19:17.221Z,96235.97
2018-07-12T20:21:45.787Z,96235.50
2018-07-12T20:24:14.380Z,96241.05
2018-07-12T20:26:42.947Z,96238.97
2018-07-12T20:29:11.645Z,96238.53
2018-07-12T20:31:40.490Z,96235.93
2018-07-12T20:34:09.068Z,96241.46
2018-07-12T20:36:37.753Z,96242.31
2018-07-12T20:39:07.800Z,96240.84
2018-07-12T20:41:36.496Z,96237.26
2018-07-12T20:44:05.065Z,96245.02
2018-07-12T20:46:33.610Z,96240.34
2018-07-12T20:49:02.171Z,96236.78
2018-07-12T20:51:30.777Z,96238.53
2018-07-12T20:53:59.361Z,96234.66
2018-07-12T20:56:27.984Z,96236.95
2018-07-12T20:58:56.575Z,96235.34
2018-07-12T21:01:25.145Z,96226.59
2018-07-12T21:03:54.543Z,96234.38
2018-07-12T21:06:23.235Z,96233.75
2018-07-12T21:08:51.799Z,96234.24
2018-07-12T21:11:20.389Z,96235.84
2018-07-12T21:13:48.936Z,96232.60
2018-07-12T21:16:17.521Z,96235.70
2018-07-12T21:18:46.104Z,96237.31
2018-07-12T21:21:15.065Z,96237.50
2018-07-12T21:23:43.722Z,96238.27
2018-07-12T21:26:12.275Z,96246.05
2018-07-12T21:28:40.907Z,96243.91
2018-07-12T21:31:09.648Z,96246.97
2018-07-12T21:33:38.266Z,96251.36
2018-07-12T21:36:06.874Z,96246.19
2018-07-12T21:38:35.408Z,96245.08
2018-07-12T21:41:04.012Z,96239.73
2018-07-12T21:43:32.784Z,96236.15
2018-07-12T21:46:01.697Z,96236.49
2018-07-12T21:48:30.295Z,96236.00
2018-07-12T21:50:58.948Z,96232.42
2018-07-12T21:53:27.597Z,96242.78
2018-07-12T21:55:56.639Z,96233.70
2018-07-12T21:58:25.180Z,96245.66
2018-07-12T22:00:53.800Z,96240.16
2018-07-12T22:03:22.580Z,96243.58
2018-07-12T22:05:54.194Z,96248.64
2018-07-12T22:08:28.425Z,96246.05
2018-07-12T22:11:00.626Z,96250.72
2018-07-12T22:13:29.916Z,96251.86
2018-07-12T22:15:58.612Z,96256.56
2018-07-12T22:18:27.201Z,96254.46
2018-07-12T22:20:55.835Z,96257.81
2018-07-12T22:23:24.652Z,96254.25
2018-07-12T22:25:53.263Z,96252.92
2018-07-12T22:28:22.008Z,96255.05
2018-07-12T22:30:50.760Z,96251.94
2018-07-12T22:33:19.514Z,96247.53
2018-07-12T22:35:48.204Z,96248.09
2018-07-12T22:38:16.756Z,96253.03
2018-07-12T22:40:45.555Z,96255.91
2018-07-12T22:43:14.208Z,96258.34
2018-07-12T22:45:42.825Z,96261.91
2018-07-12T22:48:11.487Z,96261.63
2018-07-12T22:50:40.057Z,96264.69
2018-07-12T22:53:08.670Z,96270.50
2018-07-12T22:55:37.433Z,96271.80
2018-07-12T22:58:06.128Z,96268.19
2018-07-12T23:00:34.732Z,96267.02
2018-07-12T23:03:03.514Z,96265.06
2018-07-12T23:05:32.232Z,96263.45
2018-07-12T23:08:00.796Z,96264.05
2018-07-12T23:10:29.902Z,96263.10
2018-07-12T23:12:58.521Z,96260.64
2018-07-12T23:15:27.226Z,96256.52
2018-07-12T23:17:55.826Z,96255.65
2018-07-12T23:20:24.601Z,96252.72
2018-07-12T23:22:53.549Z,96258.09
2018-07-12T23:25:22.194Z,96261.89
2018-07-12T23:27:50.753Z,96259.41
2018-07-12T23:30:19.513Z,96260.73
2018-07-12T23:32:48.127Z,96259.96
2018-07-12T23:35:16.823Z,96265.77
2018-07-12T23:37:45.508Z,96258.87
2018-07-12T23:40:14.090Z,96259.58
2018-07-12T23:42:42.704Z,96255.89
2018-07-12T23:45:11.828Z,96256.88
2018-07-12T23:47:40.514Z,96262.40
2018-07-12T23:50:09.060Z,96250.75
2018-07-12T23:52:37.652Z,96249.89
2018-07-12T23:55:06.268Z,96249.27
2018-07-12T23:57:34.971Z,96248.75
